createdAt,value
2022-09-07T00:01:24.745Z,17.50
2022-09-07T00:03:57.813Z,17.50
2022-09-07T00:06:26.520Z,17.46
2022-09-07T00:08:55.889Z,17.40
2022-09-07T00:11:24.509Z,17.40
2022-09-07T00:13:53.103Z,17.40
2022-09-07T00:16:31.156Z,17.40
2022-09-07T00:19:04.802Z,17.40
2022-09-07T00:21:33.797Z,17.40
2022-09-07T00:24:02.863Z,17.40
2022-09-07T00:26:31.887Z,17.40
2022-09-07T00:29:03.588Z,17.40
2022-09-07T00:31:32.712Z,17.40
2022-09-07T00:34:03.230Z,17.40
2022-09-07T00:36:31.862Z,17.40
2022-09-07T00:39:00.546Z,17.40
2022-09-07T00:41:29.436Z,17.40
2022-09-07T00:44:38.472Z,17.40
2022-09-07T00:47:12.725Z,17.40
2022-09-07T00:49:43.050Z,17.40
2022-09-07T00:52:13.690Z,17.30
2022-09-07T00:54:51.662Z,17.30
2022-09-07T00:57:21.457Z,17.30
2022-09-07T00:59:53.294Z,17.30
2022-09-07T01:02:22.771Z,17.30
2022-09-07T01:05:00.730Z,17.30
2022-09-07T01:07:29.333Z,17.30
2022-09-07T01:09:58.353Z,17.30
2022-09-07T01:12:26.996Z,17.20
2022-09-07T01:14:56.207Z,17.20
2022-09-07T01:17:54.886Z,17.20
2022-09-07T01:20:32.893Z,17.20
2022-09-07T01:23:35.274Z,17.20
2022-09-07T01:26:50.055Z,17.20
2022-09-07T01:30:06.137Z,17.10
2022-09-07T01:33:08.818Z,17.10
2022-09-07T01:36:15.290Z,17.10
2022-09-07T01:38:57.296Z,17.02
2022-09-07T01:42:09.272Z,17.00
2022-09-07T01:44:46.429Z,17.00
2022-09-07T01:47:42.406Z,17.00
2022-09-07T01:50:46.328Z,17.00
2022-09-07T01:53:25.243Z,17.00
2022-09-07T01:56:03.353Z,16.98
2022-09-07T01:58:56.104Z,17.00
2022-09-07T02:01:49.706Z,16.90
2022-09-07T02:04:32.286Z,16.90
2022-09-07T02:07:20.670Z,16.90
2022-09-07T02:10:06.528Z,16.90
2022-09-07T02:13:21.193Z,16.90
2022-09-07T02:16:07.834Z,16.90
2022-09-07T02:18:46.971Z,16.90
2022-09-07T02:21:20.908Z,16.90
2022-09-07T02:24:01.300Z,16.90
2022-09-07T02:26:30.951Z,16.86
2022-09-07T02:28:59.649Z,16.84
2022-09-07T02:31:29.085Z,16.80
2022-09-07T02:33:57.959Z,16.80
2022-09-07T02:36:31.102Z,16.70
2022-09-07T02:38:59.994Z,16.70
2022-09-07T02:41:38.975Z,16.70
2022-09-07T02:44:32.884Z,16.60
2022-09-07T02:47:23.279Z,16.60
2022-09-07T02:50:18.900Z,16.60
2022-09-07T02:52:47.378Z,16.60
2022-09-07T02:55:43.919Z,16.60
2022-09-07T02:58:15.473Z,16.60
2022-09-07T03:01:22.797Z,16.54
2022-09-07T03:04:32.002Z,16.50
2022-09-07T03:07:12.875Z,16.40
2022-09-07T03:09:55.149Z,16.40
2022-09-07T03:12:24.541Z,16.40
2022-09-07T03:14:53.169Z,16.30
2022-09-07T03:17:21.855Z,16.30
2022-09-07T03:19:50.443Z,16.30
2022-09-07T03:22:19.137Z,16.20
2022-09-07T03:24:47.730Z,16.20
2022-09-07T03:27:16.399Z,16.10
2022-09-07T03:29:44.982Z,16.10
2022-09-07T03:32:13.566Z,16.00
2022-09-07T03:34:42.214Z,15.96
2022-09-07T03:37:10.941Z,15.90
2022-09-07T03:39:39.797Z,15.88
2022-09-07T03:42:08.416Z,15.80
2022-09-07T03:44:37.000Z,15.80
2022-09-07T03:47:05.935Z,15.70
2022-09-07T03:49:34.581Z,15.70
2022-09-07T03:52:04.329Z,15.60
2022-09-07T03:54:35.753Z,15.60
2022-09-07T03:57:06.688Z,15.60
2022-09-07T03:59:36.031Z,15.52
2022-09-07T04:02:05.139Z,15.50
2022-09-07T04:04:34.253Z,15.50
2022-09-07T04:07:02.966Z,15.50
2022-09-07T04:09:32.064Z,15.50
2022-09-07T04:12:00.853Z,15.48
2022-09-07T04:14:29.444Z,15.42
2022-09-07T04:16:58.061Z,15.40
2022-09-07T04:19:26.809Z,15.44
2022-09-07T04:21:55.396Z,15.40
2022-09-07T04:24:23.976Z,15.40
2022-09-07T04:26:52.973Z,15.40
2022-09-07T04:29:21.657Z,15.40
2022-09-07T04:31:50.344Z,15.40
2022-09-07T04:34:19.240Z,15.40
2022-09-07T04:36:47.821Z,15.36
2022-09-07T04:39:16.510Z,15.30
2022-09-07T04:41:45.094Z,15.30
2022-09-07T04:44:16.807Z,15.30
2022-09-07T04:46:45.949Z,15.30
2022-09-07T04:49:14.533Z,15.30
2022-09-07T04:51:44.666Z,15.30
2022-09-07T04:54:13.341Z,15.30
2022-09-07T04:56:41.922Z,15.30
2022-09-07T04:59:10.713Z,15.38
2022-09-07T05:01:39.461Z,15.40
2022-09-07T05:04:08.396Z,15.40
2022-09-07T05:06:37.116Z,15.40
2022-09-07T05:09:05.828Z,15.40
2022-09-07T05:11:34.555Z,15.40
2022-09-07T05:14:04.374Z,15.40
2022-09-07T05:16:33.092Z,15.40
2022-09-07T05:19:05.440Z,15.50
2022-09-07T05:21:35.715Z,15.60
2022-09-07T05:24:05.675Z,15.74
2022-09-07T05:26:36.781Z,15.94
2022-09-07T05:31:57.300Z,16.40
2022-09-07T05:34:29.578Z,16.66
2022-09-07T05:36:59.107Z,16.90
2022-09-07T05:39:28.994Z,17.04
2022-09-07T05:41:57.709Z,17.20
2022-09-07T05:47:15.417Z,17.70
2022-09-07T05:49:44.046Z,17.80
2022-09-07T05:52:12.939Z,17.90
2022-09-07T05:54:41.727Z,18.00
2022-09-07T05:57:13.069Z,18.24
2022-09-07T05:59:41.967Z,18.56
2022-09-07T06:02:15.313Z,18.72
2022-09-07T06:04:44.460Z,18.90
2022-09-07T06:07:22.677Z,19.08
2022-09-07T06:12:41.699Z,20.00
2022-09-07T06:15:12.183Z,20.20
2022-09-07T06:17:40.765Z,20.40
2022-09-07T06:20:10.581Z,20.70
2022-09-07T06:22:39.269Z,20.86
2022-09-07T06:25:08.670Z,21.20
2022-09-07T06:27:37.316Z,21.64
2022-09-07T06:30:07.664Z,22.10
2022-09-07T06:35:11.814Z,22.50
2022-09-07T06:37:41.130Z,22.92
2022-09-07T06:40:12.275Z,23.32
2022-09-07T06:42:41.253Z,23.94
2022-09-07T06:45:11.944Z,24.50
2022-09-07T06:47:41.090Z,25.10
2022-09-07T06:50:10.796Z,25.50
2022-09-07T06:55:29.163Z,26.12
2022-09-07T06:57:57.850Z,26.32
2022-09-07T07:00:26.434Z,26.40
2022-09-07T07:02:55.156Z,26.70
2022-09-07T07:05:23.910Z,27.02
2022-09-07T07:07:52.595Z,27.40
2022-09-07T07:10:24.763Z,27.70
2022-09-07T07:12:58.097Z,27.70
2022-09-07T07:15:31.283Z,27.80
2022-09-07T07:18:09.484Z,27.62
2022-09-07T07:20:48.286Z,27.30
2022-09-07T07:23:16.972Z,27.30
2022-09-07T07:25:45.662Z,27.64
2022-09-07T07:31:09.896Z,26.98
2022-09-07T07:33:40.738Z,26.36
2022-09-07T07:36:16.963Z,25.86
2022-09-07T07:44:21.123Z,26.00
2022-09-07T07:46:51.486Z,26.44
2022-09-07T07:49:20.846Z,26.80
2022-09-07T07:54:38.090Z,26.80
2022-09-07T07:57:07.036Z,27.38
2022-09-07T07:59:36.193Z,28.26
2022-09-07T08:02:08.766Z,28.74
2022-09-07T08:04:37.647Z,29.10
2022-09-07T08:07:10.745Z,29.60
2022-09-07T08:09:46.288Z,30.00
2022-09-07T08:12:20.508Z,30.50
2022-09-07T08:14:49.398Z,30.90
2022-09-07T08:17:18.449Z,30.50
2022-09-07T08:19:47.586Z,31.00
2022-09-07T08:22:16.172Z,31.40
2022-09-07T08:24:44.656Z,31.70
2022-09-07T08:27:13.647Z,31.60
2022-09-07T08:29:42.128Z,31.20
2022-09-07T08:32:10.611Z,31.10
2022-09-07T08:34:39.195Z,31.36
2022-09-07T08:37:08.215Z,31.24
2022-09-07T08:39:37.066Z,31.00
2022-09-07T08:42:28.908Z,30.60
2022-09-07T08:45:15.114Z,30.56
2022-09-07T08:47:54.472Z,30.68
2022-09-07T08:50:45.759Z,31.00
2022-09-07T08:53:17.444Z,31.10
2022-09-07T08:56:09.799Z,31.24
2022-09-07T08:58:54.933Z,31.30
2022-09-07T09:01:32.415Z,31.40
2022-09-07T09:06:11.116Z,31.50
2022-09-07T09:07:16.913Z,30.90
2022-09-07T09:10:17.955Z,30.80
2022-09-07T09:13:04.558Z,30.98
2022-09-07T09:15:58.811Z,31.06
2022-09-07T09:19:16.376Z,31.00
2022-09-07T09:21:45.984Z,31.20
2022-09-07T09:24:19.993Z,30.90
2022-09-07T09:26:56.982Z,31.00
2022-09-07T09:29:25.458Z,31.30
2022-09-07T09:31:54.043Z,30.92
2022-09-07T09:34:25.506Z,30.60
2022-09-07T09:36:57.082Z,30.40
2022-09-07T09:39:37.434Z,30.14
2022-09-07T09:42:12.261Z,30.10
2022-09-07T09:44:42.469Z,30.20
2022-09-07T09:47:29.914Z,30.50
2022-09-07T09:50:07.076Z,30.80
2022-09-07T09:52:47.625Z,30.50
2022-09-07T09:55:36.110Z,30.22
2022-09-07T10:01:34.676Z,29.60
2022-09-07T10:04:30.973Z,29.40
2022-09-07T10:07:19.485Z,29.40
2022-09-07T10:09:54.627Z,29.40
2022-09-07T10:12:27.398Z,29.40
2022-09-07T10:14:57.715Z,29.58
2022-09-07T10:17:37.579Z,29.76
2022-09-07T10:20:19.272Z,29.88
2022-09-07T10:22:53.794Z,29.36
2022-09-07T10:25:29.957Z,28.88
2022-09-07T10:28:11.651Z,28.80
2022-09-07T10:31:09.875Z,28.70
2022-09-07T10:34:26.162Z,28.60
2022-09-07T10:37:11.202Z,28.70
2022-09-07T10:40:13.165Z,28.60
2022-09-07T10:46:10.446Z,28.96
2022-09-07T10:49:16.512Z,28.94
2022-09-07T10:52:16.331Z,28.70
2022-09-07T10:55:06.936Z,28.70
2022-09-07T10:57:54.007Z,28.54
2022-09-07T11:00:24.424Z,28.50
2022-09-07T11:06:20.576Z,28.30
2022-09-07T11:12:06.222Z,27.80
2022-09-07T11:14:50.078Z,27.60
2022-09-07T11:17:24.157Z,27.80
2022-09-07T11:20:24.729Z,28.00
2022-09-07T11:23:14.606Z,28.10
2022-09-07T11:26:12.784Z,28.10
2022-09-07T11:32:03.715Z,27.90
2022-09-07T11:34:42.357Z,27.90
2022-09-07T11:37:32.626Z,28.00
2022-09-07T11:40:18.721Z,27.70
2022-09-07T11:43:11.190Z,27.50
2022-09-07T11:45:50.778Z,27.36
2022-09-07T11:48:34.171Z,27.30
2022-09-07T11:51:37.336Z,27.50
2022-09-07T11:54:35.517Z,27.58
2022-09-07T11:57:24.476Z,27.60
2022-09-07T12:00:38.801Z,27.40
2022-09-07T12:03:44.118Z,27.22
2022-09-07T12:06:35.703Z,27.30
2022-09-07T12:09:13.402Z,27.40
2022-09-07T12:11:57.141Z,27.50
2022-09-07T12:15:11.090Z,27.60
2022-09-07T12:17:55.241Z,27.60
2022-09-07T12:20:41.334Z,27.40
2022-09-07T12:23:15.860Z,27.46
2022-09-07T12:25:47.718Z,27.48
2022-09-07T12:28:25.110Z,27.58
2022-09-07T12:31:11.487Z,27.60
2022-09-07T12:33:41.128Z,27.42
2022-09-07T12:36:49.948Z,27.40
2022-09-07T12:39:30.813Z,27.30
2022-09-07T12:45:30.870Z,27.00
2022-09-07T12:48:15.783Z,27.10
2022-09-07T12:54:39.230Z,27.50
2022-09-07T12:57:53.075Z,27.50
2022-09-07T13:00:32.424Z,27.50
2022-09-07T13:09:31.039Z,27.90
2022-09-07T13:12:01.601Z,27.90
2022-09-07T13:14:30.561Z,27.94
2022-09-07T13:17:36.632Z,27.90
2022-09-07T13:20:36.067Z,27.80
2022-09-07T13:23:21.003Z,27.90
2022-09-07T13:25:56.404Z,28.10
2022-09-07T13:28:33.433Z,28.10
2022-09-07T13:31:52.934Z,28.30
2022-09-07T13:34:36.338Z,28.42
2022-09-07T13:37:23.354Z,28.50
2022-09-07T13:39:56.004Z,28.60
2022-09-07T13:42:36.191Z,28.50
2022-09-07T13:45:23.618Z,28.28
2022-09-07T13:48:26.915Z,28.00
2022-09-07T13:51:12.805Z,27.90
2022-09-07T13:53:49.276Z,27.80
2022-09-07T13:57:03.427Z,27.60
2022-09-07T13:59:35.402Z,27.60
2022-09-07T14:02:04.241Z,27.70
2022-09-07T14:04:44.746Z,27.80
2022-09-07T14:07:20.858Z,27.80
2022-09-07T14:09:50.004Z,27.80
2022-09-07T14:12:22.378Z,27.66
2022-09-07T14:15:22.501Z,27.60
2022-09-07T14:18:03.889Z,27.60
2022-09-07T14:20:42.303Z,27.40
2022-09-07T14:23:21.535Z,27.20
2022-09-07T14:26:18.368Z,27.00
2022-09-07T14:28:51.881Z,26.80
2022-09-07T14:31:24.665Z,26.70
2022-09-07T14:33:59.137Z,26.70
2022-09-07T14:36:46.737Z,26.60
2022-09-07T14:39:18.920Z,26.60
2022-09-07T14:41:48.392Z,26.70
2022-09-07T14:44:35.818Z,26.80
2022-09-07T14:47:19.048Z,27.00
2022-09-07T14:49:56.945Z,27.10
2022-09-07T14:53:33.213Z,27.20
2022-09-07T14:55:37.947Z,27.20
2022-09-07T14:58:15.644Z,27.00
2022-09-07T15:01:37.168Z,26.90
2022-09-07T15:03:38.928Z,26.70
2022-09-07T15:07:00.851Z,26.70
2022-09-07T15:08:59.818Z,26.70
2022-09-07T15:11:37.109Z,26.70
2022-09-07T15:14:12.100Z,26.60
2022-09-07T15:16:44.580Z,26.62
2022-09-07T15:19:16.718Z,26.60
2022-09-07T15:21:46.134Z,26.70
2022-09-07T15:24:14.706Z,26.70
2022-09-07T15:27:02.590Z,26.70
2022-09-07T15:29:32.700Z,26.70
2022-09-07T15:32:04.912Z,26.60
2022-09-07T15:34:34.765Z,26.68
2022-09-07T15:38:00.566Z,26.52
2022-09-07T15:39:53.194Z,26.48
2022-09-07T15:45:12.345Z,26.50
2022-09-07T15:47:50.905Z,26.50
2022-09-07T15:50:23.259Z,26.30
2022-09-07T15:52:52.897Z,26.30
2022-09-07T15:55:21.686Z,26.20
2022-09-07T15:57:59.482Z,26.20
2022-09-07T16:00:38.623Z,26.10
2022-09-07T16:03:08.492Z,26.00
2022-09-07T16:05:44.241Z,26.00
2022-09-07T16:11:24.748Z,25.90
2022-09-07T16:14:01.852Z,25.78
2022-09-07T16:19:21.631Z,25.60
2022-09-07T16:21:50.136Z,25.60
2022-09-07T16:24:19.030Z,25.40
2022-09-07T16:26:47.821Z,25.40
2022-09-07T16:29:17.658Z,25.30
2022-09-07T16:34:35.484Z,25.20
2022-09-07T16:37:04.173Z,25.10
2022-09-07T16:39:33.504Z,25.00
2022-09-07T16:42:02.265Z,25.00
2022-09-07T16:44:30.846Z,25.00
2022-09-07T16:46:59.868Z,24.90
2022-09-07T16:49:29.086Z,24.90
2022-09-07T16:51:59.116Z,24.90
2022-09-07T16:54:28.564Z,24.80
2022-09-07T16:56:58.324Z,24.80
2022-09-07T16:59:27.882Z,24.70
2022-09-07T17:01:57.046Z,24.60
2022-09-07T17:04:26.014Z,24.60
2022-09-07T17:06:55.275Z,24.50
2022-09-07T17:09:27.340Z,24.50
2022-09-07T17:11:55.927Z,24.40
2022-09-07T17:14:25.442Z,24.30
2022-09-07T17:16:55.314Z,24.20
2022-09-07T17:19:31.458Z,24.20
2022-09-07T17:22:01.014Z,24.20
2022-09-07T17:24:32.368Z,24.10
2022-09-07T17:27:01.665Z,24.10
2022-09-07T17:29:33.853Z,24.00
2022-09-07T17:34:58.245Z,23.80
2022-09-07T17:37:27.503Z,23.70
2022-09-07T17:39:57.112Z,23.70
2022-09-07T17:43:38.688Z,23.60
2022-09-07T17:45:18.081Z,23.60
2022-09-07T17:47:49.837Z,23.50
2022-09-07T17:50:19.250Z,23.50
2022-09-07T17:52:52.955Z,23.40
2022-09-07T17:55:22.662Z,23.30
2022-09-07T17:57:51.956Z,23.30
2022-09-07T18:00:21.111Z,23.20
2022-09-07T18:02:49.949Z,23.20
2022-09-07T18:05:18.651Z,23.10
2022-09-07T18:07:48.753Z,23.10
2022-09-07T18:10:17.746Z,23.08
2022-09-07T18:12:48.174Z,23.00
2022-09-07T18:15:17.371Z,23.00
2022-09-07T18:17:46.376Z,22.90
2022-09-07T18:20:15.175Z,22.90
2022-09-07T18:22:43.846Z,22.90
2022-09-07T18:25:12.658Z,22.80
2022-09-07T18:27:41.965Z,22.80
2022-09-07T18:30:12.072Z,22.74
2022-09-07T18:32:40.643Z,22.70
2022-09-07T18:35:09.961Z,22.68
2022-09-07T18:37:39.548Z,22.66
2022-09-07T18:40:09.251Z,22.60
2022-09-07T18:42:38.815Z,22.60
2022-09-07T18:47:58.564Z,22.50
2022-09-07T18:50:27.149Z,22.50
2022-09-07T18:53:04.226Z,22.46
2022-09-07T18:55:42.750Z,22.40
2022-09-07T18:58:11.230Z,22.40
2022-09-07T19:00:46.281Z,22.40
2022-09-07T19:03:14.955Z,22.40
2022-09-07T19:05:52.573Z,22.30
2022-09-07T19:08:21.637Z,22.30
2022-09-07T19:10:50.128Z,22.30
2022-09-07T19:13:18.609Z,22.30
2022-09-07T19:15:47.749Z,22.20
2022-09-07T19:18:16.250Z,22.20
2022-09-07T19:20:44.976Z,22.20
2022-09-07T19:23:13.666Z,22.20
2022-09-07T19:25:42.350Z,22.20
2022-09-07T19:28:10.832Z,22.20
2022-09-07T19:30:39.315Z,22.10
2022-09-07T19:33:12.303Z,22.10
2022-09-07T19:35:41.095Z,22.10
2022-09-07T19:38:09.675Z,22.00
2022-09-07T19:40:38.362Z,22.00
2022-09-07T19:43:06.947Z,22.00
2022-09-07T19:45:39.892Z,21.92
2022-09-07T19:48:08.420Z,21.90
2022-09-07T19:50:37.103Z,21.88
2022-09-07T19:53:05.791Z,21.80
2022-09-07T19:55:34.375Z,21.80
2022-09-07T19:58:02.857Z,21.80
2022-09-07T20:00:31.767Z,21.78
2022-09-07T20:03:00.337Z,21.70
2022-09-07T20:05:31.952Z,21.70
2022-09-07T20:08:01.495Z,21.60
2022-09-07T20:10:32.376Z,21.60
2022-09-07T20:13:00.952Z,21.60
2022-09-07T20:15:29.810Z,21.50
2022-09-07T20:17:59.009Z,21.50
2022-09-07T20:20:27.491Z,21.50
2022-09-07T20:22:56.382Z,21.40
2022-09-07T20:25:24.965Z,21.40
2022-09-07T20:27:53.459Z,21.40
2022-09-07T20:30:24.591Z,21.32
2022-09-07T20:32:53.175Z,21.30
2022-09-07T20:35:21.764Z,21.30
2022-09-07T20:37:50.551Z,21.28
2022-09-07T20:40:19.193Z,21.20
2022-09-07T20:42:48.026Z,21.20
2022-09-07T20:45:16.816Z,21.20
2022-09-07T20:47:46.014Z,21.16
2022-09-07T20:50:14.803Z,21.10
2022-09-07T20:52:43.491Z,21.10
2022-09-07T20:55:12.279Z,21.10
2022-09-07T20:57:40.864Z,21.00
2022-09-07T21:00:10.388Z,21.00
2022-09-07T21:02:39.057Z,21.00
2022-09-07T21:05:08.459Z,21.00
2022-09-07T21:07:41.038Z,20.90
2022-09-07T21:10:10.034Z,20.90
2022-09-07T21:12:38.515Z,20.88
2022-09-07T21:15:09.196Z,20.80
2022-09-07T21:17:39.063Z,20.80
2022-09-07T21:20:08.851Z,20.80
2022-09-07T21:22:37.977Z,20.76
2022-09-07T21:25:07.886Z,20.70
2022-09-07T21:27:38.716Z,20.70
2022-09-07T21:30:08.716Z,20.70
2022-09-07T21:32:37.225Z,20.60
2022-09-07T21:35:07.150Z,20.60
2022-09-07T21:37:36.856Z,20.60
2022-09-07T21:40:06.845Z,20.50
2022-09-07T21:42:35.453Z,20.50
2022-09-07T21:45:07.358Z,20.50
2022-09-07T21:47:35.899Z,20.50
2022-09-07T21:50:05.989Z,20.50
2022-09-07T21:52:34.626Z,20.40
2022-09-07T21:55:03.188Z,20.40
2022-09-07T21:57:32.494Z,20.40
2022-09-07T22:00:01.384Z,20.30
2022-09-07T22:02:37.134Z,20.30
2022-09-07T22:05:06.332Z,20.30
2022-09-07T22:07:35.325Z,20.24
2022-09-07T22:10:04.365Z,20.20
2022-09-07T22:12:33.109Z,20.20
2022-09-07T22:15:01.697Z,20.18
2022-09-07T22:17:30.181Z,20.10
2022-09-07T22:19:58.657Z,20.10
2022-09-07T22:22:27.143Z,20.10
2022-09-07T22:24:55.724Z,20.10
2022-09-07T22:27:24.414Z,20.00
2022-09-07T22:29:52.937Z,20.00
2022-09-07T22:32:21.477Z,20.00
2022-09-07T22:34:50.090Z,19.98
2022-09-07T22:37:18.851Z,19.90
2022-09-07T22:39:47.889Z,19.90
2022-09-07T22:42:16.533Z,19.90
2022-09-07T22:44:45.117Z,19.88
2022-09-07T22:47:14.212Z,19.84
2022-09-07T22:49:42.697Z,19.80
2022-09-07T22:52:11.291Z,19.80
2022-09-07T22:54:39.975Z,19.80
2022-09-07T22:57:09.267Z,19.80
2022-09-07T22:59:37.756Z,19.80
2022-09-07T23:02:06.339Z,19.70
2022-09-07T23:04:34.898Z,19.70
2022-09-07T23:07:03.507Z,19.70
2022-09-07T23:09:32.194Z,19.70
2022-09-07T23:12:00.775Z,19.70
2022-09-07T23:14:29.668Z,19.60
2022-09-07T23:16:58.875Z,19.60
2022-09-07T23:19:28.171Z,19.60
2022-09-07T23:21:56.756Z,19.60
2022-09-07T23:24:25.646Z,19.54
2022-09-07T23:26:54.242Z,19.50
2022-09-07T23:29:22.920Z,19.50
2022-09-07T23:31:51.944Z,19.50
2022-09-07T23:34:20.596Z,19.50
2022-09-07T23:36:49.283Z,19.42
2022-09-07T23:39:17.876Z,19.40
2022-09-07T23:41:46.463Z,19.40
2022-09-07T23:44:15.138Z,19.40
2022-09-07T23:46:43.678Z,19.40
2022-09-07T23:49:12.306Z,19.32
2022-09-07T23:51:40.785Z,19.30
2022-09-07T23:54:09.576Z,19.24
2022-09-07T23:56:39.388Z,19.20
2022-09-07T23:59:09.713Z,19.20
